sensor_id;sensor_type;location;lat;lon;timestamp;pressure;altitude;pressure_sealevel;temperature;humidity
69971;BME280;57301;50.328;8.542;2023-07-02T00:02:15;97778.56;;;15.95;89.31
69971;BME280;57301;50.328;8.542;2023-07-02T00:04:45;97783.53;;;15.98;89.02
69971;BME280;57301;50.328;8.542;2023-07-02T00:07:12;97786.19;;;15.78;90.38
69971;BME280;57301;50.328;8.542;2023-07-02T00:09:39;97785.31;;;15.65;90.71
69971;BME280;57301;50.328;8.542;2023-07-02T00:12:06;97784.72;;;15.76;90.64
69971;BME280;57301;50.328;8.542;2023-07-02T00:14:33;97785.19;;;15.93;89.77
69971;BME280;57301;50.328;8.542;2023-07-02T00:16:59;97785.56;;;15.83;89.95
69971;BME280;57301;50.328;8.542;2023-07-02T00:19:27;97786.44;;;15.90;89.97
69971;BME280;57301;50.328;8.542;2023-07-02T00:21:53;97783.53;;;15.85;90.13
69971;BME280;57301;50.328;8.542;2023-07-02T00:24:20;97780.19;;;15.83;89.93
69971;BME280;57301;50.328;8.542;2023-07-02T00:26:46;97777.94;;;15.80;89.41
69971;BME280;57301;50.328;8.542;2023-07-02T00:29:13;97777.69;;;15.68;90.64
69971;BME280;57301;50.328;8.542;2023-07-02T00:31:39;97780.59;;;15.67;90.96
69971;BME280;57301;50.328;8.542;2023-07-02T00:34:06;97778.13;;;15.78;89.96
69971;BME280;57301;50.328;8.542;2023-07-02T00:36:33;97774.13;;;15.54;90.17
69971;BME280;57301;50.328;8.542;2023-07-02T00:38:59;97778.31;;;15.70;89.85
69971;BME280;57301;50.328;8.542;2023-07-02T00:41:26;97777.69;;;15.68;89.45
69971;BME280;57301;50.328;8.542;2023-07-02T00:43:52;97775.84;;;15.69;89.17
69971;BME280;57301;50.328;8.542;2023-07-02T00:46:24;97777.69;;;15.68;89.31
69971;BME280;57301;50.328;8.542;2023-07-02T00:48:53;97775.78;;;15.55;89.15
69971;BME280;57301;50.328;8.542;2023-07-02T00:51:25;97779.28;;;15.56;89.64
69971;BME280;57301;50.328;8.542;2023-07-02T00:53:53;97779.06;;;15.44;89.40
69971;BME280;57301;50.328;8.542;2023-07-02T00:56:22;97777.41;;;15.43;89.46
69971;BME280;57301;50.328;8.542;2023-07-02T00:58:54;97779.22;;;15.29;89.37
69971;BME280;57301;50.328;8.542;2023-07-02T01:01:26;97776.13;;;15.32;89.42
69971;BME280;57301;50.328;8.542;2023-07-02T01:03:59;97776.50;;;15.23;89.21
69971;BME280;57301;50.328;8.542;2023-07-02T01:06:34;97789.13;;;15.22;88.37
69971;BME280;57301;50.328;8.542;2023-07-02T01:09:05;97781.19;;;15.08;87.80
69971;BME280;57301;50.328;8.542;2023-07-02T01:11:34;97785.75;;;15.14;87.55
69971;BME280;57301;50.328;8.542;2023-07-02T01:14:14;97781.63;;;15.11;86.93
69971;BME280;57301;50.328;8.542;2023-07-02T01:16:43;97786.53;;;15.01;86.64
69971;BME280;57301;50.328;8.542;2023-07-02T01:19:13;97777.63;;;14.94;87.27
69971;BME280;57301;50.328;8.542;2023-07-02T01:21:46;97780.53;;;14.99;86.84
69971;BME280;57301;50.328;8.542;2023-07-02T01:24:13;97782.19;;;15.00;87.61
69971;BME280;57301;50.328;8.542;2023-07-02T01:26:40;97785.88;;;14.92;87.18
69971;BME280;57301;50.328;8.542;2023-07-02T01:29:17;97783.56;;;14.89;87.55
69971;BME280;57301;50.328;8.542;2023-07-02T01:31:44;97781.72;;;14.90;87.80
69971;BME280;57301;50.328;8.542;2023-07-02T01:34:11;97780.47;;;14.86;88.05
69971;BME280;57301;50.328;8.542;2023-07-02T01:36:39;97788.66;;;14.77;88.48
69971;BME280;57301;50.328;8.542;2023-07-02T01:39:06;97787.22;;;14.75;88.61
69971;BME280;57301;50.328;8.542;2023-07-02T01:41:41;97778.75;;;14.78;89.17
69971;BME280;57301;50.328;8.542;2023-07-02T01:44:08;97782.56;;;14.56;89.99
69971;BME280;57301;50.328;8.542;2023-07-02T01:46:35;97779.09;;;14.62;90.45
69971;BME280;57301;50.328;8.542;2023-07-02T01:49:01;97774.31;;;14.36;91.43
69971;BME280;57301;50.328;8.542;2023-07-02T01:51:28;97776.97;;;14.29;91.83
69971;BME280;57301;50.328;8.542;2023-07-02T01:53:54;97781.94;;;14.32;91.98
69971;BME280;57301;50.328;8.542;2023-07-02T01:56:21;97780.91;;;14.33;92.22
69971;BME280;57301;50.328;8.542;2023-07-02T01:58:47;97771.47;;;14.37;91.76
69971;BME280;57301;50.328;8.542;2023-07-02T02:01:14;97778.19;;;14.27;92.21
69971;BME280;57301;50.328;8.542;2023-07-02T02:03:40;97778.44;;;14.32;92.08
69971;BME280;57301;50.328;8.542;2023-07-02T02:06:07;97775.84;;;14.17;93.42
69971;BME280;57301;50.328;8.542;2023-07-02T02:08:33;97788.81;;;14.13;93.31
69971;BME280;57301;50.328;8.542;2023-07-02T02:11:00;97782.09;;;14.24;92.83
69971;BME280;57301;50.328;8.542;2023-07-02T02:13:27;97777.06;;;14.14;93.58
69971;BME280;57301;50.328;8.542;2023-07-02T02:15:54;97784.53;;;14.19;93.08
69971;BME280;57301;50.328;8.542;2023-07-02T02:18:20;97778.56;;;14.23;92.80
69971;BME280;57301;50.328;8.542;2023-07-02T02:20:47;97787.25;;;14.25;92.41
69971;BME280;57301;50.328;8.542;2023-07-02T02:23:14;97788.03;;;14.19;92.69
69971;BME280;57301;50.328;8.542;2023-07-02T02:25:40;97794.56;;;14.10;92.62
69971;BME280;57301;50.328;8.542;2023-07-02T02:28:07;97797.69;;;14.14;92.68
69971;BME280;57301;50.328;8.542;2023-07-02T02:30:33;97799.16;;;13.95;93.15
69971;BME280;57301;50.328;8.542;2023-07-02T02:33:00;97801.53;;;13.83;93.49
69971;BME280;57301;50.328;8.542;2023-07-02T02:35:26;97797.75;;;13.78;93.86
69971;BME280;57301;50.328;8.542;2023-07-02T02:37:53;97800.31;;;13.64;93.86
69971;BME280;57301;50.328;8.542;2023-07-02T02:40:19;97803.19;;;13.63;93.87
69971;BME280;57301;50.328;8.542;2023-07-02T02:42:46;97804.66;;;13.65;94.32
69971;BME280;57301;50.328;8.542;2023-07-02T02:45:12;97807.00;;;13.54;94.58
69971;BME280;57301;50.328;8.542;2023-07-02T02:47:39;97813.94;;;13.48;95.25
69971;BME280;57301;50.328;8.542;2023-07-02T02:50:06;97814.56;;;13.50;95.96
69971;BME280;57301;50.328;8.542;2023-07-02T02:52:32;97816.25;;;13.51;96.19
69971;BME280;57301;50.328;8.542;2023-07-02T02:54:59;97816.31;;;13.58;95.89
69971;BME280;57301;50.328;8.542;2023-07-02T02:57:26;97825.25;;;13.65;95.37
69971;BME280;57301;50.328;8.542;2023-07-02T02:59:52;97822.94;;;13.62;95.86
69971;BME280;57301;50.328;8.542;2023-07-02T03:02:18;97820.44;;;13.75;95.23
69971;BME280;57301;50.328;8.542;2023-07-02T03:04:45;97818.66;;;13.67;95.42
69971;BME280;57301;50.328;8.542;2023-07-02T03:07:12;97823.59;;;13.85;95.21
69971;BME280;57301;50.328;8.542;2023-07-02T03:09:38;97822.72;;;14.00;94.31
69971;BME280;57301;50.328;8.542;2023-07-02T03:12:05;97828.97;;;14.07;93.86
69971;BME280;57301;50.328;8.542;2023-07-02T03:14:32;97822.31;;;14.24;93.88
69971;BME280;57301;50.328;8.542;2023-07-02T03:16:59;97828.94;;;14.28;93.52
69971;BME280;57301;50.328;8.542;2023-07-02T03:19:26;97831.06;;;14.33;93.02
69971;BME280;57301;50.328;8.542;2023-07-02T03:21:52;97825.38;;;14.21;90.78
69971;BME280;57301;50.328;8.542;2023-07-02T03:24:18;97829.03;;;14.13;89.06
69971;BME280;57301;50.328;8.542;2023-07-02T03:26:45;97829.34;;;14.04;88.37
69971;BME280;57301;50.328;8.542;2023-07-02T03:29:15;97826.41;;;14.20;89.00
69971;BME280;57301;50.328;8.542;2023-07-02T03:31:46;97827.50;;;14.04;87.32
69971;BME280;57301;50.328;8.542;2023-07-02T03:34:13;97831.22;;;13.82;86.72
69971;BME280;57301;50.328;8.542;2023-07-02T03:36:39;97834.13;;;13.65;86.48
69971;BME280;57301;50.328;8.542;2023-07-02T03:39:06;97826.69;;;13.82;86.86
69971;BME280;57301;50.328;8.542;2023-07-02T03:41:36;97837.38;;;14.04;86.59
69971;BME280;57301;50.328;8.542;2023-07-02T03:44:02;97832.78;;;13.97;85.63
69971;BME280;57301;50.328;8.542;2023-07-02T03:46:29;97838.84;;;13.85;85.41
69971;BME280;57301;50.328;8.542;2023-07-02T03:48:57;97829.97;;;13.84;85.10
69971;BME280;57301;50.328;8.542;2023-07-02T03:51:24;97835.22;;;13.92;84.59
69971;BME280;57301;50.328;8.542;2023-07-02T03:53:50;97837.13;;;13.98;84.90
69971;BME280;57301;50.328;8.542;2023-07-02T03:56:20;97843.78;;;14.03;84.91
69971;BME280;57301;50.328;8.542;2023-07-02T03:58:47;97850.66;;;13.90;84.03
69971;BME280;57301;50.328;8.542;2023-07-02T04:01:14;97848.75;;;13.84;83.98
69971;BME280;57301;50.328;8.542;2023-07-02T04:03:48;97848.88;;;13.76;83.98
69971;BME280;57301;50.328;8.542;2023-07-02T04:06:16;97841.94;;;13.82;84.16
69971;BME280;57301;50.328;8.542;2023-07-02T04:08:46;97845.88;;;13.86;83.80
69971;BME280;57301;50.328;8.542;2023-07-02T04:11:12;97842.19;;;14.08;83.93
69971;BME280;57301;50.328;8.542;2023-07-02T04:13:39;97837.19;;;14.05;83.45
69971;BME280;57301;50.328;8.542;2023-07-02T04:16:06;97852.84;;;14.02;83.08
69971;BME280;57301;50.328;8.542;2023-07-02T04:18:33;97857.88;;;14.11;83.09
69971;BME280;57301;50.328;8.542;2023-07-02T04:21:01;97859.50;;;14.06;82.22
69971;BME280;57301;50.328;8.542;2023-07-02T04:23:28;97869.88;;;14.15;82.76
69971;BME280;57301;50.328;8.542;2023-07-02T04:25:55;97870.28;;;14.12;83.13
69971;BME280;57301;50.328;8.542;2023-07-02T04:28:42;97885.44;;;14.05;83.32
69971;BME280;57301;50.328;8.542;2023-07-02T04:31:09;97879.16;;;14.13;83.94
69971;BME280;57301;50.328;8.542;2023-07-02T04:33:36;97879.38;;;13.96;82.60
69971;BME280;57301;50.328;8.542;2023-07-02T04:36:03;97882.59;;;14.07;82.54
69971;BME280;57301;50.328;8.542;2023-07-02T04:38:30;97875.81;;;14.11;83.01
69971;BME280;57301;50.328;8.542;2023-07-02T04:40:56;97882.13;;;14.03;82.91
69971;BME280;57301;50.328;8.542;2023-07-02T04:43:32;97888.97;;;14.06;83.13
69971;BME280;57301;50.328;8.542;2023-07-02T04:46:00;97883.75;;;14.19;82.02
69971;BME280;57301;50.328;8.542;2023-07-02T04:48:27;97881.97;;;14.26;82.52
69971;BME280;57301;50.328;8.542;2023-07-02T04:50:54;97881.50;;;14.44;81.94
69971;BME280;57301;50.328;8.542;2023-07-02T04:53:20;97887.44;;;14.39;81.82
69971;BME280;57301;50.328;8.542;2023-07-02T04:55:47;97887.38;;;14.54;80.82
69971;BME280;57301;50.328;8.542;2023-07-02T04:58:13;97887.84;;;14.58;80.07
69971;BME280;57301;50.328;8.542;2023-07-02T05:00:42;97883.28;;;14.58;79.58
69971;BME280;57301;50.328;8.542;2023-07-02T05:03:09;97883.13;;;14.66;79.73
69971;BME280;57301;50.328;8.542;2023-07-02T05:05:38;97898.66;;;14.71;79.64
69971;BME280;57301;50.328;8.542;2023-07-02T05:08:04;97901.28;;;14.86;78.95
69971;BME280;57301;50.328;8.542;2023-07-02T05:10:31;97904.19;;;14.91;78.92
69971;BME280;57301;50.328;8.542;2023-07-02T05:12:58;97896.06;;;14.84;78.65
69971;BME280;57301;50.328;8.542;2023-07-02T05:15:25;97906.22;;;14.89;78.91
69971;BME280;57301;50.328;8.542;2023-07-02T05:17:52;97909.88;;;15.09;77.88
69971;BME280;57301;50.328;8.542;2023-07-02T05:20:19;97910.19;;;15.27;77.85
69971;BME280;57301;50.328;8.542;2023-07-02T05:22:45;97913.84;;;15.13;78.41
69971;BME280;57301;50.328;8.542;2023-07-02T05:25:12;97921.31;;;15.18;77.77
69971;BME280;57301;50.328;8.542;2023-07-02T05:27:39;97913.53;;;15.29;77.34
69971;BME280;57301;50.328;8.542;2023-07-02T05:30:05;97910.16;;;15.55;76.81
69971;BME280;57301;50.328;8.542;2023-07-02T05:32:34;97910.94;;;15.49;75.90
69971;BME280;57301;50.328;8.542;2023-07-02T05:35:00;97917.41;;;15.62;75.44
69971;BME280;57301;50.328;8.542;2023-07-02T05:37:27;97918.41;;;16.02;74.37
69971;BME280;57301;50.328;8.542;2023-07-02T05:39:54;97923.66;;;16.23;73.06
69971;BME280;57301;50.328;8.542;2023-07-02T05:42:20;97922.34;;;15.99;73.79
69971;BME280;57301;50.328;8.542;2023-07-02T05:44:46;97926.56;;;16.28;72.71
69971;BME280;57301;50.328;8.542;2023-07-02T05:47:13;97923.66;;;16.23;72.31
69971;BME280;57301;50.328;8.542;2023-07-02T05:49:41;97919.41;;;16.88;71.05
69971;BME280;57301;50.328;8.542;2023-07-02T05:52:08;97927.66;;;16.80;70.11
69971;BME280;57301;50.328;8.542;2023-07-02T05:54:39;97934.72;;;17.01;69.56
69971;BME280;57301;50.328;8.542;2023-07-02T05:57:06;97936.16;;;17.04;69.02
69971;BME280;57301;50.328;8.542;2023-07-02T05:59:32;97942.81;;;16.95;68.92
69971;BME280;57301;50.328;8.542;2023-07-02T06:01:59;97939.88;;;17.03;68.77
69971;BME280;57301;50.328;8.542;2023-07-02T06:04:26;97945.44;;;17.28;68.33
69971;BME280;57301;50.328;8.542;2023-07-02T06:06:52;97949.06;;;17.66;67.63
69971;BME280;57301;50.328;8.542;2023-07-02T06:09:19;97946.19;;;17.81;66.02
69971;BME280;57301;50.328;8.542;2023-07-02T06:11:45;97953.38;;;17.94;66.00
69971;BME280;57301;50.328;8.542;2023-07-02T06:14:12;97962.06;;;18.03;65.35
69971;BME280;57301;50.328;8.542;2023-07-02T06:16:38;97966.25;;;17.85;65.74
69971;BME280;57301;50.328;8.542;2023-07-02T06:19:05;97960.41;;;18.02;65.51
69971;BME280;57301;50.328;8.542;2023-07-02T06:21:31;97953.56;;;17.99;65.04
69971;BME280;57301;50.328;8.542;2023-07-02T06:23:58;97966.22;;;18.05;64.42
69971;BME280;57301;50.328;8.542;2023-07-02T06:26:25;97976.09;;;17.46;65.95
69971;BME280;57301;50.328;8.542;2023-07-02T06:28:51;97960.53;;;17.62;66.29
69971;BME280;57301;50.328;8.542;2023-07-02T06:31:18;97970.59;;;17.99;65.79
69971;BME280;57301;50.328;8.542;2023-07-02T06:33:44;97968.19;;;18.23;65.34
69971;BME280;57301;50.328;8.542;2023-07-02T06:36:11;97973.03;;;18.46;64.89
69971;BME280;57301;50.328;8.542;2023-07-02T06:38:39;97966.00;;;19.26;62.36
69971;BME280;57301;50.328;8.542;2023-07-02T06:41:06;97966.31;;;19.18;61.14
69971;BME280;57301;50.328;8.542;2023-07-02T06:43:32;97964.53;;;19.74;61.32
69971;BME280;57301;50.328;8.542;2023-07-02T06:45:59;97970.25;;;20.32;58.74
69971;BME280;57301;50.328;8.542;2023-07-02T06:48:25;97979.41;;;20.20;58.73
69971;BME280;57301;50.328;8.542;2023-07-02T06:50:55;97979.38;;;20.80;56.79
69971;BME280;57301;50.328;8.542;2023-07-02T06:53:22;97978.81;;;20.78;57.15
69971;BME280;57301;50.328;8.542;2023-07-02T06:55:48;97972.88;;;20.57;56.20
69971;BME280;57301;50.328;8.542;2023-07-02T06:58:15;97979.31;;;20.98;55.33
69971;BME280;57301;50.328;8.542;2023-07-02T07:00:41;97989.16;;;20.69;55.27
69971;BME280;57301;50.328;8.542;2023-07-02T07:03:08;97982.44;;;20.72;55.21
69971;BME280;57301;50.328;8.542;2023-07-02T07:05:34;97991.44;;;20.54;57.47
69971;BME280;57301;50.328;8.542;2023-07-02T07:08:01;97995.66;;;20.01;58.11
69971;BME280;57301;50.328;8.542;2023-07-02T07:10:27;97994.28;;;19.92;57.80
69971;BME280;57301;50.328;8.542;2023-07-02T07:12:54;97996.03;;;20.35;57.36
69971;BME280;57301;50.328;8.542;2023-07-02T07:15:21;97988.34;;;19.83;58.40
69971;BME280;57301;50.328;8.542;2023-07-02T07:17:47;97993.00;;;19.95;57.50
69971;BME280;57301;50.328;8.542;2023-07-02T07:20:14;97992.59;;;19.54;58.40
69971;BME280;57301;50.328;8.542;2023-07-02T07:22:41;97984.13;;;19.88;58.61
69971;BME280;57301;50.328;8.542;2023-07-02T07:25:08;97993.53;;;19.85;57.52
69971;BME280;57301;50.328;8.542;2023-07-02T07:27:34;97992.06;;;20.19;57.12
69971;BME280;57301;50.328;8.542;2023-07-02T07:30:01;97998.94;;;19.85;57.43
69971;BME280;57301;50.328;8.542;2023-07-02T07:32:27;97996.13;;;20.28;56.51
69971;BME280;57301;50.328;8.542;2023-07-02T07:34:54;97990.47;;;20.48;56.04
69971;BME280;57301;50.328;8.542;2023-07-02T07:37:20;97996.59;;;20.07;56.87
69971;BME280;57301;50.328;8.542;2023-07-02T07:39:47;97988.41;;;21.04;55.08
69971;BME280;57301;50.328;8.542;2023-07-02T07:42:14;97990.16;;;22.15;53.42
69971;BME280;57301;50.328;8.542;2023-07-02T07:44:45;97990.81;;;20.70;54.83
69971;BME280;57301;50.328;8.542;2023-07-02T07:47:12;97992.97;;;21.45;53.43
69971;BME280;57301;50.328;8.542;2023-07-02T07:49:38;97987.22;;;20.88;54.23
69971;BME280;57301;50.328;8.542;2023-07-02T07:52:05;97991.34;;;20.60;54.89
69971;BME280;57301;50.328;8.542;2023-07-02T07:54:33;97996.25;;;21.47;53.19
69971;BME280;57301;50.328;8.542;2023-07-02T07:57:06;98005.78;;;21.85;51.92
69971;BME280;57301;50.328;8.542;2023-07-02T07:59:33;98002.59;;;21.88;52.93
69971;BME280;57301;50.328;8.542;2023-07-02T08:01:59;98000.41;;;21.61;52.23
69971;BME280;57301;50.328;8.542;2023-07-02T08:04:26;97999.97;;;21.23;54.09
69971;BME280;57301;50.328;8.542;2023-07-02T08:06:52;98002.78;;;21.04;54.50
69971;BME280;57301;50.328;8.542;2023-07-02T08:09:21;98009.44;;;21.90;52.41
69971;BME280;57301;50.328;8.542;2023-07-02T08:11:47;97996.97;;;21.42;53.12
69971;BME280;57301;50.328;8.542;2023-07-02T08:14:14;98009.94;;;21.87;51.12
69971;BME280;57301;50.328;8.542;2023-07-02T08:16:40;98001.56;;;21.42;51.86
69971;BME280;57301;50.328;8.542;2023-07-02T08:19:07;98012.31;;;21.37;52.12
69971;BME280;57301;50.328;8.542;2023-07-02T08:21:33;98017.47;;;20.85;52.91
69971;BME280;57301;50.328;8.542;2023-07-02T08:24:00;98015.28;;;20.63;53.65
69971;BME280;57301;50.328;8.542;2023-07-02T08:26:26;98017.81;;;20.77;53.89
69971;BME280;57301;50.328;8.542;2023-07-02T08:28:53;98014.72;;;19.88;55.50
69971;BME280;57301;50.328;8.542;2023-07-02T08:31:20;98017.75;;;20.95;51.77
69971;BME280;57301;50.328;8.542;2023-07-02T08:33:46;98020.91;;;20.92;52.47
69971;BME280;57301;50.328;8.542;2023-07-02T08:36:13;98020.38;;;21.13;51.86
69971;BME280;57301;50.328;8.542;2023-07-02T08:38:40;98011.91;;;20.80;52.82
69971;BME280;57301;50.328;8.542;2023-07-02T08:41:08;98016.59;;;21.14;52.45
69971;BME280;57301;50.328;8.542;2023-07-02T08:43:36;98014.84;;;22.02;51.28
69971;BME280;57301;50.328;8.542;2023-07-02T08:46:02;98019.50;;;22.42;50.81
69971;BME280;57301;50.328;8.542;2023-07-02T08:48:29;98019.72;;;21.65;51.65
69971;BME280;57301;50.328;8.542;2023-07-02T08:50:56;98022.06;;;21.96;51.67
69971;BME280;57301;50.328;8.542;2023-07-02T08:53:23;98005.53;;;21.28;51.82
69971;BME280;57301;50.328;8.542;2023-07-02T08:55:56;98025.88;;;20.95;52.22
69971;BME280;57301;50.328;8.542;2023-07-02T08:58:22;98029.38;;;20.84;52.93
69971;BME280;57301;50.328;8.542;2023-07-02T09:03:36;98029.31;;;20.24;53.09
69971;BME280;57301;50.328;8.542;2023-07-02T09:06:07;98024.38;;;20.69;52.93
69971;BME280;57301;50.328;8.542;2023-07-02T09:08:34;98026.91;;;20.82;51.85
69971;BME280;57301;50.328;8.542;2023-07-02T09:11:14;98021.03;;;21.39;51.87
69971;BME280;57301;50.328;8.542;2023-07-02T09:16:30;98029.34;;;22.08;47.47
69971;BME280;57301;50.328;8.542;2023-07-02T09:19:03;98043.09;;;22.13;48.19
69971;BME280;57301;50.328;8.542;2023-07-02T09:21:45;98039.19;;;20.97;49.40
69971;BME280;57301;50.328;8.542;2023-07-02T09:24:16;98038.94;;;21.98;47.61
69971;BME280;57301;50.328;8.542;2023-07-02T09:26:47;98038.06;;;22.33;47.14
69971;BME280;57301;50.328;8.542;2023-07-02T09:29:30;98031.66;;;22.79;47.10
69971;BME280;57301;50.328;8.542;2023-07-02T09:32:01;98026.31;;;22.56;47.40
69971;BME280;57301;50.328;8.542;2023-07-02T09:34:38;98028.72;;;22.69;47.34
69971;BME280;57301;50.328;8.542;2023-07-02T09:37:06;98025.88;;;23.55;45.99
69971;BME280;57301;50.328;8.542;2023-07-02T09:39:34;98017.16;;;23.53;44.82
69971;BME280;57301;50.328;8.542;2023-07-02T09:42:06;98023.25;;;22.81;45.50
69971;BME280;57301;50.328;8.542;2023-07-02T09:44:34;98033.09;;;22.42;46.25
69971;BME280;57301;50.328;8.542;2023-07-02T09:47:07;98027.34;;;22.67;45.78
69971;BME280;57301;50.328;8.542;2023-07-02T09:49:42;98027.72;;;22.87;45.47
69971;BME280;57301;50.328;8.542;2023-07-02T09:52:11;98027.00;;;22.23;45.46
69971;BME280;57301;50.328;8.542;2023-07-02T09:54:38;98026.47;;;21.86;47.60
69971;BME280;57301;50.328;8.542;2023-07-02T09:57:05;98023.31;;;22.41;46.52
69971;BME280;57301;50.328;8.542;2023-07-02T09:59:35;98021.22;;;22.19;46.58
69971;BME280;57301;50.328;8.542;2023-07-02T10:02:02;98022.19;;;22.13;45.28
69971;BME280;57301;50.328;8.542;2023-07-02T10:04:39;98024.09;;;21.42;46.18
69971;BME280;57301;50.328;8.542;2023-07-02T10:07:06;98019.97;;;21.87;46.00
69971;BME280;57301;50.328;8.542;2023-07-02T10:09:44;98022.69;;;21.75;45.21
69971;BME280;57301;50.328;8.542;2023-07-02T10:12:22;98032.34;;;21.94;45.74
69971;BME280;57301;50.328;8.542;2023-07-02T10:14:51;98022.31;;;21.48;47.25
69971;BME280;57301;50.328;8.542;2023-07-02T10:17:25;98032.22;;;21.54;48.30
69971;BME280;57301;50.328;8.542;2023-07-02T10:19:52;98034.06;;;21.18;48.49
69971;BME280;57301;50.328;8.542;2023-07-02T10:22:20;98027.19;;;21.04;49.55
69971;BME280;57301;50.328;8.542;2023-07-02T10:24:53;98035.66;;;21.50;49.06
69971;BME280;57301;50.328;8.542;2023-07-02T10:27:21;98037.25;;;21.27;49.75
69971;BME280;57301;50.328;8.542;2023-07-02T10:29:58;98028.34;;;21.50;49.04
69971;BME280;57301;50.328;8.542;2023-07-02T10:32:28;98027.09;;;21.23;48.53
69971;BME280;57301;50.328;8.542;2023-07-02T10:34:55;98019.13;;;22.10;48.53
69971;BME280;57301;50.328;8.542;2023-07-02T10:37:21;98024.75;;;22.08;47.51
69971;BME280;57301;50.328;8.542;2023-07-02T10:39:48;98025.13;;;22.00;48.33
69971;BME280;57301;50.328;8.542;2023-07-02T10:42:15;98021.91;;;22.03;48.13
69971;BME280;57301;50.328;8.542;2023-07-02T10:44:51;98021.59;;;21.88;47.42
69971;BME280;57301;50.328;8.542;2023-07-02T10:47:19;98029.88;;;21.81;48.48
69971;BME280;57301;50.328;8.542;2023-07-02T10:49:45;98035.69;;;21.61;48.90
69971;BME280;57301;50.328;8.542;2023-07-02T10:52:12;98029.63;;;21.59;47.62
69971;BME280;57301;50.328;8.542;2023-07-02T10:54:40;98031.41;;;21.54;48.85
69971;BME280;57301;50.328;8.542;2023-07-02T10:57:10;98034.34;;;21.40;49.47
69971;BME280;57301;50.328;8.542;2023-07-02T10:59:37;98036.94;;;21.35;48.70
69971;BME280;57301;50.328;8.542;2023-07-02T11:02:04;98033.81;;;22.37;47.57
69971;BME280;57301;50.328;8.542;2023-07-02T11:04:33;98027.25;;;22.90;46.46
69971;BME280;57301;50.328;8.542;2023-07-02T11:07:00;98032.47;;;21.76;47.14
69971;BME280;57301;50.328;8.542;2023-07-02T11:09:27;98032.22;;;21.89;48.00
69971;BME280;57301;50.328;8.542;2023-07-02T11:14:32;98027.63;;;21.66;46.34
69971;BME280;57301;50.328;8.542;2023-07-02T11:17:01;98024.69;;;21.80;45.76
69971;BME280;57301;50.328;8.542;2023-07-02T11:19:29;98027.72;;;21.95;46.18
69971;BME280;57301;50.328;8.542;2023-07-02T11:21:57;98021.72;;;22.45;44.18
69971;BME280;57301;50.328;8.542;2023-07-02T11:24:28;98020.69;;;23.03;43.11
69971;BME280;57301;50.328;8.542;2023-07-02T11:26:55;98014.16;;;22.18;43.87
69971;BME280;57301;50.328;8.542;2023-07-02T11:29:22;98017.25;;;22.39;44.23
69971;BME280;57301;50.328;8.542;2023-07-02T11:31:49;98012.13;;;22.83;44.46
69971;BME280;57301;50.328;8.542;2023-07-02T11:34:21;98016.25;;;22.85;43.08
69971;BME280;57301;50.328;8.542;2023-07-02T11:36:51;98013.13;;;23.22;41.85
69971;BME280;57301;50.328;8.542;2023-07-02T11:39:20;98006.44;;;22.96;42.74
69971;BME280;57301;50.328;8.542;2023-07-02T11:41:47;98019.88;;;23.02;42.83
69971;BME280;57301;50.328;8.542;2023-07-02T11:44:14;98014.59;;;22.96;41.75
69971;BME280;57301;50.328;8.542;2023-07-02T11:46:42;98018.78;;;21.83;44.11
69971;BME280;57301;50.328;8.542;2023-07-02T11:49:08;98022.63;;;22.62;43.98
69971;BME280;57301;50.328;8.542;2023-07-02T11:51:39;98016.97;;;22.52;44.49
69971;BME280;57301;50.328;8.542;2023-07-02T11:54:06;98024.50;;;22.62;44.29
69971;BME280;57301;50.328;8.542;2023-07-02T11:56:33;98030.19;;;23.34;42.58
69971;BME280;57301;50.328;8.542;2023-07-02T11:59:00;98021.97;;;24.01;41.70
69971;BME280;57301;50.328;8.542;2023-07-02T12:01:30;98022.75;;;23.29;42.25
69971;BME280;57301;50.328;8.542;2023-07-02T12:03:57;98024.00;;;23.72;40.75
69971;BME280;57301;50.328;8.542;2023-07-02T12:06:23;98022.41;;;24.59;40.12
69971;BME280;57301;50.328;8.542;2023-07-02T12:08:51;98011.97;;;24.51;37.47
69971;BME280;57301;50.328;8.542;2023-07-02T12:11:17;98016.00;;;23.66;38.89
69971;BME280;57301;50.328;8.542;2023-07-02T12:13:44;98033.16;;;23.32;39.73
69971;BME280;57301;50.328;8.542;2023-07-02T12:16:10;98036.28;;;23.58;40.09
69971;BME280;57301;50.328;8.542;2023-07-02T12:18:37;98033.03;;;24.17;39.89
69971;BME280;57301;50.328;8.542;2023-07-02T12:21:03;98030.00;;;23.57;40.09
69971;BME280;57301;50.328;8.542;2023-07-02T12:23:30;98043.88;;;23.22;41.52
69971;BME280;57301;50.328;8.542;2023-07-02T12:25:56;98046.41;;;22.55;40.40
69971;BME280;57301;50.328;8.542;2023-07-02T12:28:23;98035.63;;;22.89;40.67
69971;BME280;57301;50.328;8.542;2023-07-02T12:30:50;98029.75;;;23.59;38.88
69971;BME280;57301;50.328;8.542;2023-07-02T12:33:16;98021.28;;;24.33;39.05
69971;BME280;57301;50.328;8.542;2023-07-02T12:35:45;98021.84;;;22.78;39.69
69971;BME280;57301;50.328;8.542;2023-07-02T12:38:12;98015.59;;;22.78;39.92
69971;BME280;57301;50.328;8.542;2023-07-02T12:40:40;98025.72;;;22.83;40.67
69971;BME280;57301;50.328;8.542;2023-07-02T12:43:07;98015.09;;;22.52;40.03
69971;BME280;57301;50.328;8.542;2023-07-02T12:45:33;98018.28;;;23.74;38.96
69971;BME280;57301;50.328;8.542;2023-07-02T12:48:00;98026.50;;;22.95;39.31
69971;BME280;57301;50.328;8.542;2023-07-02T12:50:26;98023.81;;;22.03;40.94
69971;BME280;57301;50.328;8.542;2023-07-02T12:52:53;98027.69;;;22.59;40.89
69971;BME280;57301;50.328;8.542;2023-07-02T12:55:19;98040.75;;;22.45;40.32
69971;BME280;57301;50.328;8.542;2023-07-02T12:57:46;98043.44;;;22.57;40.22
69971;BME280;57301;50.328;8.542;2023-07-02T13:00:13;98042.66;;;23.64;38.45
69971;BME280;57301;50.328;8.542;2023-07-02T13:02:39;98036.19;;;23.19;37.55
69971;BME280;57301;50.328;8.542;2023-07-02T13:05:23;98032.72;;;22.50;38.80
69971;BME280;57301;50.328;8.542;2023-07-02T13:07:50;98035.50;;;22.26;39.58
69971;BME280;57301;50.328;8.542;2023-07-02T13:10:16;98038.00;;;23.47;38.26
69971;BME280;57301;50.328;8.542;2023-07-02T13:12:43;98035.78;;;23.78;38.40